Time;durP1;ratioP1;P1;durP2;ratioP2;P2;SDS_P1;SDS_P2;PMS_P1;PMS_P2;Temp;Humidity;BMP_temperature;BMP_pressure;BME280_temperature;BME280_humidity;BME280_pressure;Samples;Min_cycle;Max_cycle;Signal;HPM_P1;HPM_P2
2021/06/21 00:00:23;;;;;;;15.32;12.20;;;22.00;99.90;;;;;;5129707;27;20068;-47
2021/06/21 00:02:48;;;;;;;15.98;13.18;;;22.00;99.90;;;;;;5130247;27;20039;-46
2021/06/21 00:05:15;;;;;;;15.15;11.55;;;22.00;99.90;;;;;;5130293;27;20038;-45
2021/06/21 00:07:41;;;;;;;16.48;13.30;;;21.90;99.90;;;;;;5128920;27;20405;-44
2021/06/21 00:10:08;;;;;;;15.40;11.85;;;21.90;99.90;;;;;;5129387;27;20072;-45
2021/06/21 00:12:34;;;;;;;13.77;11.25;;;21.80;99.90;;;;;;5130204;27;20068;-44
2021/06/21 00:15:00;;;;;;;13.75;12.15;;;21.80;99.90;;;;;;5129781;27;20579;-44
2021/06/21 00:17:26;;;;;;;15.13;12.75;;;21.80;99.90;;;;;;5113868;27;20519;-45
2021/06/21 00:19:51;;;;;;;14.98;13.40;;;21.80;99.90;;;;;;5120881;27;20027;-45
2021/06/21 00:22:18;;;;;;;14.85;13.15;;;21.70;99.90;;;;;;5130080;27;20027;-45
2021/06/21 00:24:44;;;;;;;16.20;13.30;;;21.60;99.90;;;;;;5130087;27;20426;-45
2021/06/21 00:27:10;;;;;;;20.38;15.38;;;21.60;99.90;;;;;;5129834;27;20019;-46
2021/06/21 00:29:36;;;;;;;20.42;14.93;;;21.50;99.90;;;;;;5129056;27;20015;-46
2021/06/21 00:32:02;;;;;;;18.27;14.55;;;21.40;99.90;;;;;;5129822;27;20426;-45
2021/06/21 00:34:27;;;;;;;21.52;14.40;;;21.40;99.90;;;;;;5129897;27;20063;-47
2021/06/21 00:36:53;;;;;;;22.10;15.73;;;21.30;99.90;;;;;;5129835;27;20436;-47
2021/06/21 00:39:19;;;;;;;23.73;16.45;;;21.20;99.90;;;;;;5129067;27;20134;-43
2021/06/21 00:41:44;;;;;;;20.63;16.02;;;21.00;99.90;;;;;;5128129;27;20023;-44
2021/06/21 00:44:10;;;;;;;22.50;15.98;;;20.90;99.90;;;;;;5125655;27;20030;-44
2021/06/21 00:46:36;;;;;;;18.23;14.20;;;20.80;99.90;;;;;;5121092;27;20388;-43
2021/06/21 00:49:02;;;;;;;16.30;14.55;;;20.80;99.90;;;;;;5128295;27;20027;-44
2021/06/21 00:51:28;;;;;;;22.13;16.50;;;20.70;99.90;;;;;;5129212;27;20590;-44
2021/06/21 00:53:53;;;;;;;19.45;17.08;;;20.70;99.90;;;;;;5129638;27;20478;-44
2021/06/21 00:56:19;;;;;;;24.65;18.25;;;20.70;99.90;;;;;;5129502;27;20097;-44
2021/06/21 00:58:45;;;;;;;21.30;16.42;;;20.60;99.90;;;;;;5128158;27;20023;-45
2021/06/21 01:01:11;;;;;;;21.55;17.52;;;20.60;99.90;;;;;;5128395;27;20019;-44
2021/06/21 01:03:36;;;;;;;26.45;18.40;;;20.50;99.90;;;;;;5129128;27;20307;-45
2021/06/21 01:06:03;;;;;;;23.73;19.30;;;20.50;99.90;;;;;;5129887;27;20384;-44
2021/06/21 01:08:29;;;;;;;25.92;19.33;;;20.40;99.90;;;;;;5129462;27;20184;-44
2021/06/21 01:10:56;;;;;;;26.00;19.67;;;20.40;99.90;;;;;;5128554;27;20126;-44
2021/06/21 01:14:00;;;;;;;25.23;19.77;;;20.40;99.90;;;;;;5129283;27;20602;-45
2021/06/21 01:16:39;;;;;;;22.38;19.30;;;20.30;99.90;;;;;;5109087;28;20016;-45
2021/06/21 01:19:21;;;;;;;23.50;19.55;;;20.40;99.90;;;;;;5109935;28;20103;-44
2021/06/21 01:22:11;;;;;;;25.80;19.85;;;20.30;99.90;;;;;;5124483;28;20081;-45
2021/06/21 01:25:01;;;;;;;22.45;19.42;;;20.30;99.90;;;;;;5129521;28;20031;-44
2021/06/21 01:27:51;;;;;;;29.25;21.45;;;20.20;99.90;;;;;;5129277;27;20477;-45
2021/06/21 01:30:23;;;;;;;26.67;21.85;;;20.20;99.90;;;;;;5128513;27;20019;-44
2021/06/21 01:33:00;;;;;;;25.92;21.63;;;20.20;99.90;;;;;;5129063;27;20544;-45
2021/06/21 01:35:33;;;;;;;27.13;22.75;;;20.20;99.90;;;;;;5129276;27;20110;-45
2021/06/21 01:38:03;;;;;;;33.38;24.42;;;20.10;99.90;;;;;;5129207;27;20071;-46
2021/06/21 01:40:33;;;;;;;25.65;22.65;;;20.10;99.90;;;;;;5128605;27;20031;-45
2021/06/21 01:43:02;;;;;;;29.13;24.13;;;20.00;99.90;;;;;;5129687;27;20027;-47
2021/06/21 01:45:29;;;;;;;32.88;24.45;;;20.00;99.90;;;;;;5121576;27;20362;-46
2021/06/21 01:47:54;;;;;;;26.20;22.17;;;19.90;99.90;;;;;;5125149;28;20043;-44
2021/06/21 01:50:23;;;;;;;32.45;23.23;;;19.80;99.90;;;;;;5128276;28;20024;-44
2021/06/21 01:53:00;;;;;;;31.48;23.75;;;19.80;99.90;;;;;;5129430;27;20024;-44
2021/06/21 01:55:28;;;;;;;27.80;22.15;;;19.80;99.90;;;;;;5129066;27;20015;-45
2021/06/21 01:57:55;;;;;;;30.05;25.05;;;19.80;99.90;;;;;;5129026;27;20038;-45
2021/06/21 02:00:21;;;;;;;31.77;24.85;;;19.80;99.90;;;;;;5128047;27;20027;-44
2021/06/21 02:02:50;;;;;;;33.47;25.33;;;19.80;99.90;;;;;;5129315;27;20034;-44
2021/06/21 02:05:17;;;;;;;27.33;23.17;;;19.80;99.90;;;;;;5127618;28;20027;-44
2021/06/21 02:07:44;;;;;;;26.58;23.30;;;19.80;99.90;;;;;;5129064;27;20098;-44
2021/06/21 02:10:12;;;;;;;31.77;25.55;;;19.80;99.90;;;;;;5119458;27;20118;-44
2021/06/21 02:12:38;;;;;;;35.03;25.92;;;19.80;99.90;;;;;;5123256;27;20188;-45
2021/06/21 02:15:04;;;;;;;33.45;26.33;;;19.70;99.90;;;;;;5131141;27;20465;-45
2021/06/21 02:17:31;;;;;;;31.20;23.58;;;19.70;99.90;;;;;;5132505;27;20396;-45
2021/06/21 02:19:58;;;;;;;30.35;24.48;;;19.60;99.90;;;;;;5132134;27;20392;-45
2021/06/21 02:22:26;;;;;;;34.88;26.83;;;19.60;99.90;;;;;;5132466;27;20030;-45
2021/06/21 02:24:54;;;;;;;35.35;26.83;;;19.60;99.90;;;;;;5132025;27;20083;-45
2021/06/21 02:27:21;;;;;;;32.40;26.30;;;19.60;99.90;;;;;;5132704;27;20035;-45
2021/06/21 02:29:48;;;;;;;38.55;29.02;;;19.60;99.90;;;;;;5130425;27;20472;-45
2021/06/21 02:32:14;;;;;;;40.45;26.75;;;19.50;99.90;;;;;;5132380;27;20035;-45
2021/06/21 02:34:40;;;;;;;35.80;27.08;;;19.40;99.90;;;;;;5132647;27;20031;-45
2021/06/21 02:37:05;;;;;;;39.92;28.17;;;19.40;99.90;;;;;;5132339;27;20027;-46
2021/06/21 02:39:31;;;;;;;36.65;28.27;;;19.30;99.90;;;;;;5125630;27;20051;-45
2021/06/21 02:41:56;;;;;;;38.38;26.92;;;19.20;99.90;;;;;;5123330;27;20425;-46
2021/06/21 02:44:22;;;;;;;37.58;26.00;;;19.20;99.90;;;;;;5130927;27;20027;-45
2021/06/21 02:46:47;;;;;;;38.30;27.98;;;19.20;99.90;;;;;;5115213;27;20099;-45
2021/06/21 02:49:13;;;;;;;37.55;27.63;;;19.10;99.90;;;;;;5128666;27;20023;-45
2021/06/21 02:51:49;;;;;;;35.20;27.45;;;19.10;99.90;;;;;;5132105;27;20023;-45
2021/06/21 02:54:37;;;;;;;40.70;29.92;;;19.10;99.90;;;;;;5131680;27;20037;-46
2021/06/21 02:57:14;;;;;;;35.33;27.88;;;19.10;99.90;;;;;;5131894;27;20031;-44
2021/06/21 02:59:44;;;;;;;32.30;25.95;;;19.10;99.90;;;;;;5129697;27;20031;-44
2021/06/21 03:02:11;;;;;;;39.17;28.40;;;19.10;99.90;;;;;;5131591;27;20037;-46
2021/06/21 03:04:39;;;;;;;37.78;26.75;;;19.10;99.90;;;;;;5131817;27;20023;-45
2021/06/21 03:07:08;;;;;;;37.80;27.52;;;19.00;99.90;;;;;;5131707;27;20023;-45
2021/06/21 03:09:34;;;;;;;36.75;27.65;;;19.10;99.90;;;;;;5130773;27;20156;-45
2021/06/21 03:12:01;;;;;;;40.80;28.05;;;19.10;99.90;;;;;;5113731;27;20533;-45
2021/06/21 03:14:27;;;;;;;37.08;27.17;;;19.10;99.90;;;;;;5123511;27;20676;-44
2021/06/21 03:16:55;;;;;;;36.72;25.67;;;19.10;99.90;;;;;;5131503;27;20027;-45
2021/06/21 03:19:22;;;;;;;31.85;25.98;;;19.10;99.90;;;;;;5130739;27;20038;-46
2021/06/21 03:21:47;;;;;;;34.65;25.48;;;19.10;99.90;;;;;;5119352;27;20080;-43
2021/06/21 03:24:14;;;;;;;30.05;23.48;;;19.10;99.90;;;;;;5129951;27;20411;-43
2021/06/21 03:26:41;;;;;;;35.28;26.75;;;19.10;99.90;;;;;;5130004;27;20023;-43
2021/06/21 03:29:19;;;;;;;31.52;23.75;;;19.10;99.90;;;;;;5130831;27;20398;-44
2021/06/21 03:31:46;;;;;;;33.97;23.88;;;19.10;99.90;;;;;;5131087;27;20023;-45
2021/06/21 03:34:13;;;;;;;35.83;25.30;;;19.10;99.90;;;;;;5130855;27;20027;-46
2021/06/21 03:36:39;;;;;;;28.98;23.23;;;19.00;99.90;;;;;;5130414;27;20035;-45
2021/06/21 03:39:05;;;;;;;33.33;22.85;;;19.00;99.90;;;;;;5130565;27;20067;-45
2021/06/21 03:41:31;;;;;;;33.42;23.40;;;19.10;99.90;;;;;;5130475;27;20106;-45
2021/06/21 03:43:56;;;;;;;29.83;21.70;;;19.10;99.90;;;;;;5130720;27;20216;-45
2021/06/21 03:46:22;;;;;;;25.75;21.02;;;19.10;99.90;;;;;;5112517;27;20034;-45
2021/06/21 03:48:47;;;;;;;27.55;21.83;;;19.10;99.90;;;;;;5113442;27;20057;-45
2021/06/21 03:51:12;;;;;;;26.75;21.20;;;19.00;99.90;;;;;;5109284;28;20028;-45
2021/06/21 03:53:38;;;;;;;25.75;20.23;;;19.10;99.90;;;;;;5110635;28;20028;-45
2021/06/21 03:56:04;;;;;;;32.10;22.30;;;19.00;99.90;;;;;;5109113;28;20421;-45
2021/06/21 03:58:29;;;;;;;27.20;20.42;;;19.00;99.90;;;;;;5110048;28;20133;-46
2021/06/21 04:00:55;;;;;;;26.10;20.70;;;19.00;99.90;;;;;;5106259;28;20103;-45
2021/06/21 04:03:23;;;;;;;20.27;17.67;;;19.00;99.90;;;;;;5105611;27;20042;-45
2021/06/21 04:05:49;;;;;;;22.45;18.88;;;19.00;99.90;;;;;;5105570;27;20023;-46
2021/06/21 04:08:16;;;;;;;21.55;18.00;;;19.00;99.90;;;;;;5109776;28;20104;-46
2021/06/21 04:10:45;;;;;;;21.73;16.65;;;18.90;99.90;;;;;;5108953;28;20028;-46
2021/06/21 04:13:13;;;;;;;22.45;17.92;;;18.90;99.90;;;;;;5109579;28;20536;-46
2021/06/21 04:15:39;;;;;;;21.10;17.67;;;18.90;99.90;;;;;;5103772;28;20496;-45
2021/06/21 04:18:07;;;;;;;21.83;17.30;;;18.90;99.90;;;;;;5116632;27;20016;-45
2021/06/21 04:20:33;;;;;;;20.63;16.98;;;18.80;99.90;;;;;;5129259;27;20404;-45
2021/06/21 04:22:59;;;;;;;23.23;16.27;;;18.80;99.90;;;;;;5130077;27;20431;-45
2021/06/21 04:25:25;;;;;;;19.15;16.65;;;18.80;99.90;;;;;;5129953;27;20110;-46
2021/06/21 04:27:51;;;;;;;19.48;16.83;;;18.80;99.90;;;;;;5104543;27;20030;-45
2021/06/21 04:30:19;;;;;;;19.92;16.52;;;18.80;99.90;;;;;;5097665;28;20445;-46
2021/06/21 04:32:45;;;;;;;17.08;14.27;;;18.80;99.90;;;;;;5097753;28;20031;-45
2021/06/21 04:35:14;;;;;;;20.15;16.15;;;18.80;99.90;;;;;;5098926;28;20089;-46
2021/06/21 04:37:40;;;;;;;19.08;14.77;;;18.80;99.90;;;;;;5099542;28;20366;-45
2021/06/21 04:40:09;;;;;;;16.50;14.02;;;18.80;99.90;;;;;;5104101;28;20499;-45
2021/06/21 04:42:35;;;;;;;17.35;14.50;;;18.90;99.90;;;;;;5109204;28;20314;-45
2021/06/21 04:45:01;;;;;;;18.20;15.02;;;18.90;99.90;;;;;;5109383;28;20027;-45
2021/06/21 04:47:27;;;;;;;17.45;15.20;;;18.90;99.90;;;;;;5108315;27;20023;-45
2021/06/21 04:49:56;;;;;;;19.33;15.50;;;18.90;99.90;;;;;;5121159;27;20038;-45
2021/06/21 04:52:25;;;;;;;15.80;14.13;;;19.00;99.90;;;;;;5131075;27;20498;-45
2021/06/21 04:54:51;;;;;;;18.92;14.65;;;18.90;99.90;;;;;;5119423;27;20039;-45
2021/06/21 04:57:17;;;;;;;18.50;15.05;;;18.90;99.90;;;;;;5092832;28;20043;-45
2021/06/21 04:59:43;;;;;;;18.80;14.98;;;19.00;99.90;;;;;;5099983;28;20035;-45
2021/06/21 05:02:08;;;;;;;21.85;16.00;;;19.00;99.90;;;;;;5116857;27;20107;-47
2021/06/21 05:04:34;;;;;;;16.02;14.30;;;18.90;99.90;;;;;;5100475;28;20052;-47
2021/06/21 05:07:00;;;;;;;17.50;15.25;;;19.00;99.90;;;;;;5103512;28;20118;-46
2021/06/21 05:09:25;;;;;;;18.00;15.15;;;19.00;99.90;;;;;;5100674;28;20114;-46
2021/06/21 05:11:51;;;;;;;17.73;14.88;;;19.00;99.90;;;;;;5094191;28;20032;-45
2021/06/21 05:14:17;;;;;;;17.90;15.02;;;19.00;99.90;;;;;;5098133;28;20052;-45
2021/06/21 05:16:42;;;;;;;18.33;15.75;;;18.90;99.90;;;;;;5099715;28;20092;-45
2021/06/21 05:19:08;;;;;;;16.45;14.48;;;19.00;99.90;;;;;;5118306;28;20034;-46
2021/06/21 05:21:34;;;;;;;17.10;13.68;;;19.00;99.90;;;;;;5109015;28;20020;-46
2021/06/21 05:24:00;;;;;;;16.10;13.55;;;19.00;99.90;;;;;;5108672;28;20520;-46
2021/06/21 05:26:25;;;;;;;15.93;14.13;;;19.00;99.90;;;;;;5104230;28;20110;-44
2021/06/21 05:28:51;;;;;;;18.70;15.35;;;19.10;99.90;;;;;;5091357;28;20103;-45
2021/06/21 05:31:17;;;;;;;16.92;14.52;;;19.20;99.90;;;;;;5089582;28;20114;-45
2021/06/21 05:33:45;;;;;;;16.40;14.73;;;19.30;99.90;;;;;;5088658;28;20028;-48
2021/06/21 05:36:10;;;;;;;15.25;13.70;;;19.50;99.90;;;;;;5102174;28;20519;-47
2021/06/21 05:38:37;;;;;;;15.93;13.20;;;19.50;99.90;;;;;;5110422;28;20027;-48
2021/06/21 05:41:03;;;;;;;15.95;14.25;;;19.50;99.90;;;;;;5108100;28;20023;-45
2021/06/21 05:43:29;;;;;;;17.23;14.50;;;19.60;99.90;;;;;;5094485;28;20662;-45
2021/06/21 05:45:54;;;;;;;15.55;12.93;;;19.60;99.90;;;;;;5089402;28;20032;-48
2021/06/21 05:48:21;;;;;;;17.42;13.82;;;19.60;99.90;;;;;;5121458;27;20023;-47
2021/06/21 05:50:46;;;;;;;15.93;14.02;;;19.60;99.90;;;;;;5105006;28;20017;-45
2021/06/21 05:53:12;;;;;;;17.17;15.48;;;19.70;99.90;;;;;;5114214;28;20098;-45
2021/06/21 05:55:37;;;;;;;18.35;16.45;;;19.70;99.90;;;;;;5106048;28;20082;-46
2021/06/21 05:58:03;;;;;;;17.90;15.20;;;19.80;99.90;;;;;;5098785;28;20024;-45
2021/06/21 06:00:29;;;;;;;17.60;14.85;;;19.70;99.90;;;;;;5094196;28;20036;-45
2021/06/21 06:02:54;;;;;;;14.95;13.35;;;19.80;99.90;;;;;;5113916;28;20035;-45
2021/06/21 06:05:21;;;;;;;15.50;13.52;;;19.80;99.90;;;;;;5110758;28;20027;-45
2021/06/21 06:07:47;;;;;;;12.60;11.40;;;19.80;99.90;;;;;;5103616;28;20086;-44
2021/06/21 06:10:13;;;;;;;12.15;10.95;;;19.90;99.90;;;;;;5101981;28;20034;-45
2021/06/21 06:12:39;;;;;;;11.82;10.48;;;19.90;99.90;;;;;;5102001;28;20119;-45
2021/06/21 06:15:05;;;;;;;14.32;10.65;;;19.90;99.90;;;;;;5109919;28;20115;-47
2021/06/21 06:17:31;;;;;;;18.13;11.23;;;20.00;99.90;;;;;;5101148;27;20081;-45
2021/06/21 06:19:57;;;;;;;12.10;9.73;;;20.00;99.90;;;;;;5125216;27;20051;-45
2021/06/21 06:22:22;;;;;;;13.65;10.40;;;20.00;99.90;;;;;;5115298;27;20406;-46
2021/06/21 06:24:48;;;;;;;11.93;9.43;;;20.00;99.90;;;;;;5111155;28;20446;-45
2021/06/21 06:27:14;;;;;;;10.32;9.27;;;20.00;99.90;;;;;;5107273;28;20377;-45
2021/06/21 06:29:39;;;;;;;11.27;8.57;;;19.90;99.90;;;;;;5089500;28;20020;-47
2021/06/21 06:32:05;;;;;;;12.93;10.20;;;19.90;99.90;;;;;;5104289;28;20032;-45
2021/06/21 06:34:32;;;;;;;13.50;9.98;;;20.00;99.90;;;;;;5113267;28;20543;-45
2021/06/21 06:36:58;;;;;;;10.32;9.20;;;20.00;99.90;;;;;;5103611;28;20062;-45
2021/06/21 06:39:24;;;;;;;10.75;8.55;;;20.10;99.90;;;;;;5105113;28;20528;-45
2021/06/21 06:41:50;;;;;;;11.30;9.73;;;20.10;99.90;;;;;;5100956;28;20409;-45
2021/06/21 06:44:16;;;;;;;10.95;9.10;;;20.10;99.90;;;;;;5111569;28;20032;-45
2021/06/21 06:46:41;;;;;;;9.55;8.68;;;20.20;99.90;;;;;;5108445;27;20047;-45
2021/06/21 06:49:07;;;;;;;11.32;9.60;;;20.30;99.90;;;;;;5122242;27;20469;-45
2021/06/21 06:51:41;;;;;;;11.05;9.82;;;20.30;99.90;;;;;;5115786;27;20099;-44
2021/06/21 06:57:01;;;;;;;11.05;8.88;;;20.30;99.90;;;;;;5098891;28;20036;-46
2021/06/21 06:59:35;;;;;;;10.82;9.23;;;20.40;99.90;;;;;;5089826;28;20406;-45
2021/06/21 07:02:05;;;;;;;13.73;9.48;;;20.40;99.90;;;;;;5090415;28;20524;-45
2021/06/21 07:04:31;;;;;;;10.68;9.55;;;20.50;99.90;;;;;;5097949;28;20381;-45
2021/06/21 07:07:00;;;;;;;12.13;9.55;;;20.50;99.90;;;;;;5095263;28;20081;-46
2021/06/21 07:09:28;;;;;;;12.48;10.27;;;20.60;99.90;;;;;;5091755;28;20040;-44
2021/06/21 07:11:53;;;;;;;13.60;10.13;;;20.70;99.90;;;;;;5108810;28;20484;-46
2021/06/21 07:14:19;;;;;;;12.18;9.85;;;20.90;99.90;;;;;;5090119;28;20060;-45
2021/06/21 07:16:47;;;;;;;14.23;10.23;;;21.00;99.90;;;;;;5105680;27;20019;-45
2021/06/21 07:19:14;;;;;;;11.35;8.95;;;21.20;99.90;;;;;;5115714;27;20023;-46
2021/06/21 07:21:40;;;;;;;11.95;9.88;;;21.10;99.90;;;;;;5101511;27;20504;-45
2021/06/21 07:24:07;;;;;;;13.68;9.77;;;21.10;99.90;;;;;;5099079;28;20032;-45
2021/06/21 07:26:33;;;;;;;10.60;9.52;;;21.10;99.90;;;;;;5101594;28;20028;-47
2021/06/21 07:28:58;;;;;;;12.20;9.68;;;21.00;99.90;;;;;;5097113;28;20092;-45
2021/06/21 07:31:24;;;;;;;15.10;10.55;;;21.00;99.90;;;;;;5090581;28;20020;-46
2021/06/21 07:33:50;;;;;;;11.00;9.98;;;21.00;99.90;;;;;;5089285;28;20078;-45
2021/06/21 07:36:16;;;;;;;11.02;9.93;;;21.10;99.90;;;;;;5094696;27;20028;-47
2021/06/21 07:38:42;;;;;;;12.77;10.35;;;21.20;99.90;;;;;;5116554;27;20518;-45
2021/06/21 07:41:08;;;;;;;10.98;8.88;;;21.20;99.90;;;;;;5119030;27;20046;-45
2021/06/21 07:43:33;;;;;;;9.73;8.73;;;21.40;99.90;;;;;;5094643;28;20024;-44
2021/06/21 07:45:59;;;;;;;11.57;9.75;;;21.50;99.90;;;;;;5089944;27;20378;-44
2021/06/21 07:48:24;;;;;;;13.80;10.65;;;21.60;99.90;;;;;;5113759;27;20024;-45
2021/06/21 07:50:51;;;;;;;13.73;10.48;;;21.90;99.90;;;;;;5109298;28;20027;-45
2021/06/21 07:53:17;;;;;;;11.82;10.13;;;22.00;99.90;;;;;;5096282;28;20016;-46
2021/06/21 07:55:42;;;;;;;12.48;10.48;;;22.10;99.90;;;;;;5089756;28;20035;-46
2021/06/21 07:58:08;;;;;;;13.32;10.20;;;22.10;99.90;;;;;;5104606;28;20388;-45
2021/06/21 08:00:38;;;;;;;13.00;10.88;;;22.20;99.90;;;;;;5107582;28;20110;-45
2021/06/21 08:03:06;;;;;;;15.32;10.48;;;22.60;99.90;;;;;;5109816;28;20051;-46
2021/06/21 08:05:32;;;;;;;13.80;10.73;;;22.90;99.90;;;;;;5109735;28;20111;-45
2021/06/21 08:07:57;;;;;;;10.82;9.20;;;23.10;99.90;;;;;;5109206;28;20102;-45
2021/06/21 08:10:23;;;;;;;12.20;9.75;;;23.40;99.90;;;;;;5107404;28;20031;-45
2021/06/21 08:12:48;;;;;;;10.27;8.13;;;23.70;99.90;;;;;;5103056;28;20423;-46
2021/06/21 08:15:14;;;;;;;10.38;8.02;;;24.40;99.90;;;;;;5108087;28;20055;-45
2021/06/21 08:17:40;;;;;;;12.20;9.25;;;25.20;99.90;;;;;;5115959;27;20033;-44
2021/06/21 08:20:09;;;;;;;8.10;7.30;;;25.40;99.90;;;;;;5127248;27;20076;-43
2021/06/21 08:22:35;;;;;;;10.15;7.88;;;26.30;99.90;;;;;;5114951;27;20243;-44
2021/06/21 08:25:01;;;;;;;11.98;8.93;;;26.90;99.90;;;;;;5105469;27;20077;-45
2021/06/21 08:27:28;;;;;;;7.70;5.60;;;27.20;99.90;;;;;;5097598;27;20102;-44
2021/06/21 08:29:53;;;;;;;7.15;5.95;;;27.80;99.90;;;;;;5093149;28;20069;-45
2021/06/21 08:32:19;;;;;;;6.28;5.68;;;28.70;99.90;;;;;;5081291;28;20023;-45
2021/06/21 08:34:44;;;;;;;10.73;5.45;;;29.90;99.90;;;;;;5098368;28;20028;-45
2021/06/21 08:37:10;;;;;;;9.25;6.10;;;30.40;99.90;;;;;;5098965;28;20067;-47
2021/06/21 08:39:38;;;;;;;9.50;4.80;;;30.80;98.20;;;;;;5099204;28;20120;-48
2021/06/21 08:42:05;;;;;;;7.47;4.90;;;31.90;98.90;;;;;;5096382;28;20631;-46
2021/06/21 08:44:34;;;;;;;6.60;5.68;;;32.20;96.90;;;;;;5098750;28;20062;-47
2021/06/21 08:47:02;;;;;;;8.32;5.65;;;33.10;93.80;;;;;;5100437;27;20490;-46
2021/06/21 08:49:28;;;;;;;6.88;4.63;;;34.50;91.50;;;;;;5099075;27;20024;-46
2021/06/21 08:51:54;;;;;;;5.03;4.38;;;34.50;90.20;;;;;;5098745;28;20115;-45
2021/06/21 08:54:19;;;;;;;9.75;5.25;;;34.10;90.70;;;;;;5097130;28;20036;-45
2021/06/21 08:56:45;;;;;;;6.03;4.75;;;33.70;82.20;;;;;;5098746;28;20645;-46
2021/06/21 08:59:10;;;;;;;6.20;4.75;;;32.70;85.20;;;;;;5095784;28;20028;-45
2021/06/21 09:01:40;;;;;;;9.23;4.10;;;31.50;89.40;;;;;;5098451;28;20020;-45
2021/06/21 09:04:10;;;;;;;12.10;4.65;;;29.60;86.60;;;;;;5099658;28;20454;-45
2021/06/21 09:06:37;;;;;;;11.23;4.15;;;28.50;91.40;;;;;;5098993;28;20023;-43
2021/06/21 09:09:04;;;;;;;10.32;4.45;;;28.00;92.50;;;;;;5100876;28;20043;-44
2021/06/21 09:11:45;;;;;;;8.50;3.67;;;28.60;92.00;;;;;;5096152;28;20035;-47
2021/06/21 09:14:26;;;;;;;8.20;3.88;;;29.10;92.80;;;;;;5100856;28;20015;-44
2021/06/21 09:16:52;;;;;;;13.10;3.65;;;30.40;90.00;;;;;;5096505;28;20473;-45
2021/06/21 09:19:18;;;;;;;10.43;3.60;;;31.60;82.20;;;;;;5097528;28;20694;-45
2021/06/21 09:21:44;;;;;;;9.85;3.10;;;31.00;81.20;;;;;;5096773;28;20085;-44
2021/06/21 09:24:26;;;;;;;10.18;3.58;;;30.20;81.20;;;;;;5100700;28;20024;-44
2021/06/21 09:26:57;;;;;;;9.30;2.65;;;28.30;87.20;;;;;;5103311;28;20031;-45
2021/06/21 09:29:34;;;;;;;6.82;3.08;;;29.20;86.00;;;;;;5100782;28;20024;-44
2021/06/21 09:32:00;;;;;;;7.40;2.40;;;29.00;85.40;;;;;;5101287;28;20535;-43
2021/06/21 09:34:26;;;;;;;7.88;2.95;;;29.10;86.30;;;;;;5101314;28;20044;-45
2021/06/21 09:36:54;;;;;;;11.25;2.88;;;29.10;85.60;;;;;;5100486;28;20432;-44
2021/06/21 09:39:29;;;;;;;13.40;3.35;;;29.90;82.30;;;;;;5099272;28;20473;-46
2021/06/21 09:42:19;;;;;;;9.05;2.50;;;30.60;75.60;;;;;;5097413;28;20026;-43
2021/06/21 09:44:46;;;;;;;8.45;2.50;;;29.20;79.20;;;;;;5108906;27;20016;-44
2021/06/21 09:47:14;;;;;;;7.13;2.50;;;31.00;78.60;;;;;;5105495;27;20024;-44
2021/06/21 09:50:03;;;;;;;6.32;2.13;;;33.20;72.40;;;;;;5104442;27;20060;-44
2021/06/21 09:52:36;;;;;;;8.98;2.50;;;32.90;65.60;;;;;;5100119;28;20504;-44
2021/06/21 09:55:10;;;;;;;6.25;2.47;;;31.80;70.80;;;;;;5101728;28;20019;-44
2021/06/21 09:57:37;;;;;;;8.63;2.00;;;31.60;69.00;;;;;;5101075;28;20070;-44
2021/06/21 10:00:09;;;;;;;5.53;2.10;;;29.90;73.40;;;;;;5098616;28;20024;-44
2021/06/21 10:02:37;;;;;;;10.57;2.53;;;30.30;75.50;;;;;;5102840;28;20028;-44
2021/06/21 10:05:05;;;;;;;7.30;2.25;;;30.70;72.10;;;;;;5111722;28;20073;-44
2021/06/21 10:07:36;;;;;;;7.43;1.83;;;30.20;72.70;;;;;;5112658;28;20034;-45
2021/06/21 10:10:07;;;;;;;8.10;2.35;;;31.40;73.70;;;;;;5108896;27;20024;-45
2021/06/21 10:12:33;;;;;;;10.45;2.42;;;32.20;73.10;;;;;;5112973;27;20066;-44
2021/06/21 10:14:59;;;;;;;6.68;1.98;;;32.00;70.10;;;;;;5105484;28;20057;-47
2021/06/21 10:17:26;;;;;;;7.72;2.08;;;33.90;64.20;;;;;;5104705;28;20040;-44
2021/06/21 10:19:53;;;;;;;8.43;2.30;;;35.20;60.90;;;;;;5092454;28;20098;-46
2021/06/21 10:22:21;;;;;;;7.70;2.33;;;35.20;61.20;;;;;;5093167;28;20031;-45
2021/06/21 10:24:50;;;;;;;10.27;2.03;;;35.80;56.00;;;;;;5092678;28;20084;-45
2021/06/21 10:27:18;;;;;;;4.97;1.98;;;35.50;56.60;;;;;;5092929;28;20028;-46
2021/06/21 10:29:44;;;;;;;5.43;1.60;;;36.00;55.50;;;;;;5102219;28;20040;-43
2021/06/21 10:32:10;;;;;;;6.90;1.98;;;35.40;54.10;;;;;;5107328;28;20028;-43
2021/06/21 10:34:36;;;;;;;8.40;2.00;;;34.70;54.30;;;;;;5092403;28;20031;-43
2021/06/21 10:37:02;;;;;;;7.28;1.83;;;32.90;55.70;;;;;;5103103;28;20020;-43
2021/06/21 10:39:34;;;;;;;6.10;1.90;;;33.00;56.20;;;;;;5102325;27;20031;-42
2021/06/21 10:42:05;;;;;;;5.93;2.10;;;33.50;56.80;;;;;;5105080;27;20024;-43
2021/06/21 10:44:50;;;;;;;8.98;2.13;;;34.00;57.00;;;;;;5103038;28;20024;-43
2021/06/21 10:47:38;;;;;;;5.53;1.92;;;33.60;56.60;;;;;;5100800;28;20018;-43
2021/06/21 10:50:16;;;;;;;10.48;5.18;;;33.00;56.80;;;;;;5090020;28;20533;-43
2021/06/21 10:52:51;;;;;;;7.10;2.40;;;31.70;59.80;;;;;;5090895;28;20098;-44
2021/06/21 10:58:00;;;;;;;5.70;1.90;;;30.40;59.20;;;;;;5110501;28;20508;-44
2021/06/21 11:00:42;;;;;;;7.25;1.98;;;29.80;63.60;;;;;;5097858;28;20043;-46
2021/06/21 11:03:23;;;;;;;6.50;1.80;;;29.70;65.40;;;;;;5101002;28;20385;-44
2021/06/21 11:05:49;;;;;;;6.53;1.70;;;30.00;64.10;;;;;;5096850;28;20066;-44
2021/06/21 11:08:26;;;;;;;7.82;2.05;;;30.10;65.00;;;;;;5090849;28;20032;-44
2021/06/21 11:10:57;;;;;;;8.55;2.55;;;29.80;65.60;;;;;;5098059;27;20493;-44
2021/06/21 11:13:43;;;;;;;8.93;2.17;;;29.90;63.80;;;;;;5111048;27;20024;-44
2021/06/21 11:16:19;;;;;;;7.25;2.28;;;29.40;64.90;;;;;;5109904;27;20039;-44
2021/06/21 11:18:49;;;;;;;6.97;2.35;;;30.20;62.80;;;;;;5111040;28;20099;-44
2021/06/21 11:21:22;;;;;;;7.53;2.00;;;30.90;64.50;;;;;;5110286;28;20269;-44
2021/06/21 11:23:50;;;;;;;5.82;1.60;;;31.80;63.70;;;;;;5110550;28;20024;-46
2021/06/21 11:26:16;;;;;;;7.13;2.15;;;31.50;62.70;;;;;;5109250;28;20213;-44
2021/06/21 11:28:43;;;;;;;6.85;1.83;;;30.40;61.70;;;;;;5110408;28;20028;-47
2021/06/21 11:31:28;;;;;;;8.27;2.17;;;29.90;63.60;;;;;;5092027;28;20023;-44
2021/06/21 11:34:06;;;;;;;8.57;2.10;;;29.10;64.50;;;;;;5090112;28;20417;-44
2021/06/21 11:36:38;;;;;;;8.23;2.50;;;27.70;68.10;;;;;;5088747;28;20096;-44
2021/06/21 11:39:24;;;;;;;7.85;2.13;;;27.30;70.90;;;;;;5092958;28;20031;-44
2021/06/21 11:41:55;;;;;;;10.48;2.47;;;27.50;70.60;;;;;;5099740;27;20024;-45
2021/06/21 11:44:39;;;;;;;4.93;1.85;;;28.00;70.10;;;;;;5098688;28;20024;-48
2021/06/21 11:47:14;;;;;;;7.53;2.10;;;29.40;69.50;;;;;;5098307;28;20028;-45
2021/06/21 11:49:40;;;;;;;6.53;2.08;;;30.80;65.80;;;;;;5100661;28;20596;-48
2021/06/21 11:52:06;;;;;;;6.57;2.20;;;31.10;66.60;;;;;;5098374;28;20369;-44
2021/06/21 11:54:39;;;;;;;15.23;2.58;;;31.60;63.60;;;;;;5097755;28;20138;-45
2021/06/21 11:57:06;;;;;;;8.48;2.22;;;30.30;63.50;;;;;;5094967;28;20088;-45
2021/06/21 11:59:36;;;;;;;9.57;2.83;;;30.40;66.00;;;;;;5099042;28;20016;-46
2021/06/21 12:02:10;;;;;;;6.95;2.63;;;29.00;65.70;;;;;;5100759;28;20028;-47
2021/06/21 12:04:37;;;;;;;6.60;2.22;;;28.80;68.70;;;;;;5099793;28;20032;-44
2021/06/21 12:07:04;;;;;;;8.70;2.05;;;28.30;69.30;;;;;;5098562;28;20526;-44
2021/06/21 12:09:30;;;;;;;5.38;2.08;;;28.30;68.80;;;;;;5098273;28;20401;-44
2021/06/21 12:11:56;;;;;;;9.93;2.13;;;29.00;68.90;;;;;;5095901;27;20035;-46
2021/06/21 12:14:26;;;;;;;6.30;2.35;;;29.00;68.20;;;;;;5102081;27;20027;-45
2021/06/21 12:17:02;;;;;;;7.10;1.98;;;28.80;69.10;;;;;;5097767;28;20460;-44
2021/06/21 12:19:28;;;;;;;5.00;1.98;;;28.50;70.00;;;;;;5097743;28;20066;-44
2021/06/21 12:21:53;;;;;;;7.88;2.58;;;27.90;70.10;;;;;;5100906;28;20065;-44
2021/06/21 12:24:22;;;;;;;6.30;2.10;;;27.60;70.40;;;;;;5097780;28;20038;-44
2021/06/21 12:26:50;;;;;;;6.07;2.13;;;26.40;71.90;;;;;;5097392;28;20493;-44
2021/06/21 12:29:29;;;;;;;6.68;2.25;;;27.00;75.10;;;;;;5105913;27;20107;-44
2021/06/21 12:31:56;;;;;;;2.92;1.67;;;27.70;73.50;;;;;;5093755;28;20542;-44
2021/06/21 12:34:42;;;;;;;7.35;1.90;;;28.20;72.80;;;;;;5094810;28;20031;-43
2021/06/21 12:37:23;;;;;;;4.75;1.75;;;28.50;71.40;;;;;;5097856;28;20035;-44
2021/06/21 12:39:58;;;;;;;4.20;2.00;;;27.80;69.90;;;;;;5097989;28;20023;-45
2021/06/21 12:42:26;;;;;;;5.65;1.92;;;27.50;70.90;;;;;;5097498;28;20032;-44
2021/06/21 12:44:52;;;;;;;2.97;1.83;;;27.40;71.00;;;;;;5092702;28;20115;-44